sensor_id;sensor_type;location;lat;lon;timestamp;pressure;altitude;pressure_sealevel;temperature;humidity
41862;BME280;27537;57.134;-2.136;2024-01-25T00:00:20;101369.38;;;4.90;100.00
41862;BME280;27537;57.134;-2.136;2024-01-25T00:02:47;101385.78;;;4.97;100.00
41862;BME280;27537;57.134;-2.136;2024-01-25T00:05:13;101393.63;;;4.91;100.00
41862;BME280;27537;57.134;-2.136;2024-01-25T00:07:50;101397.06;;;4.96;100.00
41862;BME280;27537;57.134;-2.136;2024-01-25T00:10:17;101372.00;;;4.89;100.00
41862;BME280;27537;57.134;-2.136;2024-01-25T00:12:45;101397.91;;;5.01;100.00
41862;BME280;27537;57.134;-2.136;2024-01-25T00:15:12;101402.25;;;4.94;100.00
41862;BME280;27537;57.134;-2.136;2024-01-25T00:17:39;101391.88;;;4.87;100.00
41862;BME280;27537;57.134;-2.136;2024-01-25T00:20:09;101399.66;;;4.93;100.00
41862;BME280;27537;57.134;-2.136;2024-01-25T00:22:36;101394.50;;;4.85;100.00
41862;BME280;27537;57.134;-2.136;2024-01-25T00:25:05;101380.69;;;4.80;100.00
41862;BME280;27537;57.134;-2.136;2024-01-25T00:27:32;101379.84;;;4.78;100.00
41862;BME280;27537;57.134;-2.136;2024-01-25T00:29:59;101368.56;;;4.79;100.00
41862;BME280;27537;57.134;-2.136;2024-01-25T00:32:25;101384.97;;;4.89;100.00
41862;BME280;27537;57.134;-2.136;2024-01-25T00:34:52;101367.72;;;4.79;100.00
41862;BME280;27537;57.134;-2.136;2024-01-25T00:37:19;101391.91;;;4.78;100.00
41862;BME280;27537;57.134;-2.136;2024-01-25T00:39:47;101371.19;;;4.65;100.00
41862;BME280;27537;57.134;-2.136;2024-01-25T00:42:15;101381.53;;;4.74;100.00
41862;BME280;27537;57.134;-2.136;2024-01-25T00:44:42;101385.88;;;4.72;100.00
41862;BME280;27537;57.134;-2.136;2024-01-25T00:47:09;101387.63;;;4.73;100.00
41862;BME280;27537;57.134;-2.136;2024-01-25T00:49:37;101390.22;;;4.67;100.00
41862;BME280;27537;57.134;-2.136;2024-01-25T00:52:04;101368.66;;;4.56;100.00
41862;BME280;27537;57.134;-2.136;2024-01-25T00:54:32;101392.84;;;4.61;100.00
41862;BME280;27537;57.134;-2.136;2024-01-25T00:56:59;101390.25;;;4.58;100.00
41862;BME280;27537;57.134;-2.136;2024-01-25T00:59:26;101391.16;;;4.46;100.00
41862;BME280;27537;57.134;-2.136;2024-01-25T01:01:53;101387.66;;;4.60;100.00
41862;BME280;27537;57.134;-2.136;2024-01-25T01:04:21;101390.25;;;4.58;100.00
41862;BME280;27537;57.134;-2.136;2024-01-25T01:06:48;101377.28;;;4.55;100.00
41862;BME280;27537;57.134;-2.136;2024-01-25T01:09:16;101368.66;;;4.57;100.00
41862;BME280;27537;57.134;-2.136;2024-01-25T01:11:44;101376.44;;;4.62;100.00
41862;BME280;27537;57.134;-2.136;2024-01-25T01:14:10;101366.88;;;4.72;100.00
41862;BME280;27537;57.134;-2.136;2024-01-25T01:16:37;101363.41;;;4.68;100.00
41862;BME280;27537;57.134;-2.136;2024-01-25T01:19:04;101352.19;;;4.69;100.00
41862;BME280;27537;57.134;-2.136;2024-01-25T01:21:34;101353.84;;;4.84;100.00
41862;BME280;27537;57.134;-2.136;2024-01-25T01:24:02;101358.19;;;4.76;100.00
41862;BME280;27537;57.134;-2.136;2024-01-25T01:26:29;101376.34;;;4.82;100.00
41862;BME280;27537;57.134;-2.136;2024-01-25T01:28:56;101368.59;;;4.73;100.00
41862;BME280;27537;57.134;-2.136;2024-01-25T01:31:22;101365.97;;;4.76;100.00
41862;BME280;27537;57.134;-2.136;2024-01-25T01:33:49;101378.94;;;4.79;100.00
41862;BME280;27537;57.134;-2.136;2024-01-25T01:36:16;101367.72;;;4.82;100.00
41862;BME280;27537;57.134;-2.136;2024-01-25T01:38:43;101377.22;;;4.83;100.00
41862;BME280;27537;57.134;-2.136;2024-01-25T01:41:10;101383.25;;;4.88;100.00
41862;BME280;27537;57.134;-2.136;2024-01-25T01:43:40;101370.28;;;4.83;100.00
41862;BME280;27537;57.134;-2.136;2024-01-25T01:46:10;101395.31;;;4.92;100.00
41862;BME280;27537;57.134;-2.136;2024-01-25T01:48:41;101401.41;;;4.83;100.00
41862;BME280;27537;57.134;-2.136;2024-01-25T01:51:09;101392.78;;;4.80;100.00
41862;BME280;27537;57.134;-2.136;2024-01-25T01:53:36;101386.72;;;4.79;100.00
41862;BME280;27537;57.134;-2.136;2024-01-25T01:56:03;101378.09;;;4.71;100.00
41862;BME280;27537;57.134;-2.136;2024-01-25T01:58:31;101410.97;;;4.77;100.00
41862;BME280;27537;57.134;-2.136;2024-01-25T02:00:59;101407.53;;;4.73;100.00
41862;BME280;27537;57.134;-2.136;2024-01-25T02:03:26;101419.59;;;4.82;100.00
41862;BME280;27537;57.134;-2.136;2024-01-25T02:05:54;101412.69;;;4.76;100.00
41862;BME280;27537;57.134;-2.136;2024-01-25T02:08:21;101410.94;;;4.81;100.00
41862;BME280;27537;57.134;-2.136;2024-01-25T02:10:47;101395.38;;;4.80;100.00
41862;BME280;27537;57.134;-2.136;2024-01-25T02:13:15;101391.91;;;4.82;100.00
41862;BME280;27537;57.134;-2.136;2024-01-25T02:15:42;101397.97;;;4.87;100.00
41862;BME280;27537;57.134;-2.136;2024-01-25T02:18:10;101397.97;;;4.83;100.00
41862;BME280;27537;57.134;-2.136;2024-01-25T02:20:36;101380.69;;;4.75;100.00
41862;BME280;27537;57.134;-2.136;2024-01-25T02:23:03;101368.59;;;4.73;100.00
41862;BME280;27537;57.134;-2.136;2024-01-25T02:25:30;101382.41;;;4.83;100.00
41862;BME280;27537;57.134;-2.136;2024-01-25T02:27:57;101362.53;;;4.82;100.00
41862;BME280;27537;57.134;-2.136;2024-01-25T02:30:24;101366.81;;;4.83;100.00
41862;BME280;27537;57.134;-2.136;2024-01-25T02:32:50;101368.56;;;4.78;100.00
41862;BME280;27537;57.134;-2.136;2024-01-25T02:35:17;101372.88;;;4.85;100.00
41862;BME280;27537;57.134;-2.136;2024-01-25T02:37:44;101356.44;;;4.83;100.00
41862;BME280;27537;57.134;-2.136;2024-01-25T02:40:12;101348.66;;;4.81;100.00
41862;BME280;27537;57.134;-2.136;2024-01-25T02:42:39;101356.44;;;4.81;100.00
41862;BME280;27537;57.134;-2.136;2024-01-25T02:45:06;101379.81;;;4.86;100.00
41862;BME280;27537;57.134;-2.136;2024-01-25T02:47:33;101391.03;;;4.83;100.00
41862;BME280;27537;57.134;-2.136;2024-01-25T02:50:00;101376.38;;;4.68;100.00
41862;BME280;27537;57.134;-2.136;2024-01-25T02:52:26;101361.69;;;4.69;100.00
41862;BME280;27537;57.134;-2.136;2024-01-25T02:54:53;101378.09;;;4.71;100.00
41862;BME280;27537;57.134;-2.136;2024-01-25T02:57:20;101381.59;;;4.68;100.00
41862;BME280;27537;57.134;-2.136;2024-01-25T02:59:46;101385.88;;;4.72;100.00
41862;BME280;27537;57.134;-2.136;2024-01-25T03:02:13;101378.97;;;4.73;100.00
41862;BME280;27537;57.134;-2.136;2024-01-25T03:04:40;101373.75;;;4.82;100.00
41862;BME280;27537;57.134;-2.136;2024-01-25T03:07:07;101372.03;;;4.80;100.00
41862;BME280;27537;57.134;-2.136;2024-01-25T03:09:34;101370.31;;;4.74;100.00
41862;BME280;27537;57.134;-2.136;2024-01-25T03:12:01;101375.47;;;4.83;100.00
41862;BME280;27537;57.134;-2.136;2024-01-25T03:14:27;101388.47;;;4.82;100.00
41862;BME280;27537;57.134;-2.136;2024-01-25T03:16:54;101396.25;;;4.74;100.00
41862;BME280;27537;57.134;-2.136;2024-01-25T03:19:24;101402.31;;;4.78;100.00
41862;BME280;27537;57.134;-2.136;2024-01-25T03:21:51;101401.44;;;4.79;100.00
41862;BME280;27537;57.134;-2.136;2024-01-25T03:24:18;101391.88;;;4.93;100.00
41862;BME280;27537;57.134;-2.136;2024-01-25T03:26:45;101369.41;;;4.83;100.00
41862;BME280;27537;57.134;-2.136;2024-01-25T03:29:12;101379.78;;;4.89;100.00
41862;BME280;27537;57.134;-2.136;2024-01-25T03:31:38;101378.91;;;4.94;100.00
41862;BME280;27537;57.134;-2.136;2024-01-25T03:34:05;101384.09;;;4.91;100.00
41862;BME280;27537;57.134;-2.136;2024-01-25T03:36:32;101387.53;;;4.90;100.00
41862;BME280;27537;57.134;-2.136;2024-01-25T03:38:59;101385.00;;;4.84;100.00
41862;BME280;27537;57.134;-2.136;2024-01-25T03:41:26;101380.66;;;4.85;100.00
41862;BME280;27537;57.134;-2.136;2024-01-25T03:43:53;101363.38;;;4.74;100.00
41862;BME280;27537;57.134;-2.136;2024-01-25T03:46:20;101352.16;;;4.80;100.00
41862;BME280;27537;57.134;-2.136;2024-01-25T03:48:47;101343.53;;;4.73;100.00
41862;BME280;27537;57.134;-2.136;2024-01-25T03:51:13;101340.03;;;4.82;100.00
41862;BME280;27537;57.134;-2.136;2024-01-25T03:53:40;101344.38;;;4.80;100.00
41862;BME280;27537;57.134;-2.136;2024-01-25T03:56:12;101357.31;;;4.83;100.00
41862;BME280;27537;57.134;-2.136;2024-01-25T03:58:39;101342.63;;;4.78;100.00
41862;BME280;27537;57.134;-2.136;2024-01-25T04:01:06;101352.16;;;4.72;100.00
41862;BME280;27537;57.134;-2.136;2024-01-25T04:03:33;101308.19;;;4.46;100.00
41862;BME280;27537;57.134;-2.136;2024-01-25T04:06:00;101334.88;;;4.67;100.00
41862;BME280;27537;57.134;-2.136;2024-01-25T04:08:26;101321.03;;;4.75;100.00
41862;BME280;27537;57.134;-2.136;2024-01-25T04:10:53;101299.41;;;4.72;100.00
41862;BME280;27537;57.134;-2.136;2024-01-25T04:13:20;101306.31;;;4.78;100.00
41862;BME280;27537;57.134;-2.136;2024-01-25T04:15:46;101314.94;;;4.89;100.00
41862;BME280;27537;57.134;-2.136;2024-01-25T04:18:13;101296.75;;;4.86;100.00
41862;BME280;27537;57.134;-2.136;2024-01-25T04:20:41;101300.19;;;4.92;100.00
41862;BME280;27537;57.134;-2.136;2024-01-25T04:23:08;101303.66;;;4.87;100.00
41862;BME280;27537;57.134;-2.136;2024-01-25T04:25:35;101293.38;;;4.71;100.00
41862;BME280;27537;57.134;-2.136;2024-01-25T04:28:01;101298.56;;;4.67;100.00
41862;BME280;27537;57.134;-2.136;2024-01-25T04:30:29;101300.28;;;4.72;100.00
41862;BME280;27537;57.134;-2.136;2024-01-25T04:32:57;101306.31;;;4.74;100.00
41862;BME280;27537;57.134;-2.136;2024-01-25T04:35:24;101299.41;;;4.72;100.00
41862;BME280;27537;57.134;-2.136;2024-01-25T04:37:51;101288.16;;;4.76;100.00
41862;BME280;27537;57.134;-2.136;2024-01-25T04:40:18;101283.00;;;4.68;100.00
41862;BME280;27537;57.134;-2.136;2024-01-25T04:42:45;101274.38;;;4.68;100.00
41862;BME280;27537;57.134;-2.136;2024-01-25T04:45:12;101277.81;;;4.67;100.00
41862;BME280;27537;57.134;-2.136;2024-01-25T04:47:39;101270.03;;;4.68;100.00
41862;BME280;27537;57.134;-2.136;2024-01-25T04:50:06;101274.38;;;4.63;100.00
41862;BME280;27537;57.134;-2.136;2024-01-25T04:52:33;101265.75;;;4.58;100.00
41862;BME280;27537;57.134;-2.136;2024-01-25T04:55:00;101255.41;;;4.53;100.00
41862;BME280;27537;57.134;-2.136;2024-01-25T04:57:27;101250.19;;;4.60;100.00
41862;BME280;27537;57.134;-2.136;2024-01-25T04:59:53;101241.56;;;4.51;100.00
41862;BME280;27537;57.134;-2.136;2024-01-25T05:02:20;101239.81;;;4.60;100.00
41862;BME280;27537;57.134;-2.136;2024-01-25T05:04:47;101198.38;;;4.44;100.00
41862;BME280;27537;57.134;-2.136;2024-01-25T05:07:14;101230.28;;;4.63;100.00
41862;BME280;27537;57.134;-2.136;2024-01-25T05:09:40;101225.94;;;4.64;100.00
41862;BME280;27537;57.134;-2.136;2024-01-25T05:12:07;101232.03;;;4.56;100.00
41862;BME280;27537;57.134;-2.136;2024-01-25T05:14:34;101231.22;;;4.48;100.00
41862;BME280;27537;57.134;-2.136;2024-01-25T05:17:01;101229.53;;;4.43;100.00
41862;BME280;27537;57.134;-2.136;2024-01-25T05:19:27;101201.94;;;4.28;100.00
41862;BME280;27537;57.134;-2.136;2024-01-25T05:21:55;101211.38;;;4.41;100.00
41862;BME280;27537;57.134;-2.136;2024-01-25T05:24:22;101210.50;;;4.50;100.00
41862;BME280;27537;57.134;-2.136;2024-01-25T05:26:48;101198.38;;;4.46;100.00
41862;BME280;27537;57.134;-2.136;2024-01-25T05:29:15;101199.22;;;4.54;100.00
41862;BME280;27537;57.134;-2.136;2024-01-25T05:31:43;101200.13;;;4.45;100.00
41862;BME280;27537;57.134;-2.136;2024-01-25T05:34:10;101200.06;;;4.62;100.00
41862;BME280;27537;57.134;-2.136;2024-01-25T05:36:37;101193.91;;;4.72;100.00
41862;BME280;27537;57.134;-2.136;2024-01-25T05:39:03;101200.00;;;4.64;100.00
41862;BME280;27537;57.134;-2.136;2024-01-25T05:41:33;101162.00;;;4.60;100.00
41862;BME280;27537;57.134;-2.136;2024-01-25T05:44:00;101179.25;;;4.64;100.00
41862;BME280;27537;57.134;-2.136;2024-01-25T05:46:26;101176.66;;;4.65;100.00
41862;BME280;27537;57.134;-2.136;2024-01-25T05:48:53;101173.28;;;4.59;100.00
41862;BME280;27537;57.134;-2.136;2024-01-25T05:51:20;101173.19;;;4.69;100.00
41862;BME280;27537;57.134;-2.136;2024-01-25T05:53:47;101165.34;;;4.80;100.00
41862;BME280;27537;57.134;-2.136;2024-01-25T05:56:14;101162.75;;;4.82;100.00
41862;BME280;27537;57.134;-2.136;2024-01-25T05:58:40;101151.41;;;4.93;100.00
41862;BME280;27537;57.134;-2.136;2024-01-25T06:01:07;101159.06;;;5.10;100.00
41862;BME280;27537;57.134;-2.136;2024-01-25T06:03:34;101157.41;;;5.02;100.00
41862;BME280;27537;57.134;-2.136;2024-01-25T06:06:01;101155.63;;;5.10;100.00
41862;BME280;27537;57.134;-2.136;2024-01-25T06:08:28;101162.53;;;5.08;100.00
41862;BME280;27537;57.134;-2.136;2024-01-25T06:10:54;101164.34;;;5.00;100.00
41862;BME280;27537;57.134;-2.136;2024-01-25T06:13:21;101166.03;;;5.02;100.00
41862;BME280;27537;57.134;-2.136;2024-01-25T06:15:48;101170.28;;;5.12;100.00
41862;BME280;27537;57.134;-2.136;2024-01-25T06:18:15;101155.53;;;5.19;100.00
41862;BME280;27537;57.134;-2.136;2024-01-25T06:20:41;101152.97;;;5.11;100.00
41862;BME280;27537;57.134;-2.136;2024-01-25T06:23:08;101149.44;;;5.19;100.00
41862;BME280;27537;57.134;-2.136;2024-01-25T06:25:35;101145.16;;;5.16;100.00
41862;BME280;27537;57.134;-2.136;2024-01-25T06:28:02;101152.91;;;5.21;100.00
41862;BME280;27537;57.134;-2.136;2024-01-25T06:30:30;101155.53;;;5.18;100.00
41862;BME280;27537;57.134;-2.136;2024-01-25T06:32:57;101159.06;;;5.10;100.00
41862;BME280;27537;57.134;-2.136;2024-01-25T06:35:24;101164.25;;;5.12;100.00
41862;BME280;27537;57.134;-2.136;2024-01-25T06:37:50;101147.72;;;5.21;100.00
41862;BME280;27537;57.134;-2.136;2024-01-25T06:40:17;101154.63;;;5.22;100.00
41862;BME280;27537;57.134;-2.136;2024-01-25T06:42:44;101146.78;;;5.29;100.00
41862;BME280;27537;57.134;-2.136;2024-01-25T06:45:11;101139.88;;;5.25;100.00
41862;BME280;27537;57.134;-2.136;2024-01-25T06:47:38;101147.63;;;5.31;100.00
41862;BME280;27537;57.134;-2.136;2024-01-25T06:50:05;101145.91;;;5.29;100.00
41862;BME280;27537;57.134;-2.136;2024-01-25T06:52:33;101136.44;;;5.22;100.00
41862;BME280;27537;57.134;-2.136;2024-01-25T06:54:59;101142.47;;;5.25;100.00
41862;BME280;27537;57.134;-2.136;2024-01-25T06:57:26;101131.16;;;5.31;100.00
41862;BME280;27537;57.134;-2.136;2024-01-25T06:59:53;101122.59;;;5.26;100.00
41862;BME280;27537;57.134;-2.136;2024-01-25T07:02:20;101111.34;;;5.24;100.00
41862;BME280;27537;57.134;-2.136;2024-01-25T07:04:48;101116.47;;;5.33;100.00
41862;BME280;27537;57.134;-2.136;2024-01-25T07:07:15;101102.66;;;5.26;100.00
41862;BME280;27537;57.134;-2.136;2024-01-25T07:09:41;101089.56;;;5.37;100.00
41862;BME280;27537;57.134;-2.136;2024-01-25T07:12:08;101091.25;;;5.43;100.00
41862;BME280;27537;57.134;-2.136;2024-01-25T07:14:35;101089.44;;;5.51;100.00
41862;BME280;27537;57.134;-2.136;2024-01-25T07:17:02;101085.91;;;5.57;100.00
41862;BME280;27537;57.134;-2.136;2024-01-25T07:19:30;101081.50;;;5.63;100.00
41862;BME280;27537;57.134;-2.136;2024-01-25T07:21:56;101087.56;;;5.62;100.00
41862;BME280;27537;57.134;-2.136;2024-01-25T07:24:24;101084.00;;;5.69;100.00
41862;BME280;27537;57.134;-2.136;2024-01-25T07:26:52;101072.78;;;5.67;100.00
41862;BME280;27537;57.134;-2.136;2024-01-25T07:29:22;101081.34;;;5.77;100.00
41862;BME280;27537;57.134;-2.136;2024-01-25T07:31:48;101068.53;;;5.60;100.00
41862;BME280;27537;57.134;-2.136;2024-01-25T07:34:15;101077.03;;;5.75;100.00
41862;BME280;27537;57.134;-2.136;2024-01-25T07:36:42;101083.81;;;5.88;100.00
41862;BME280;27537;57.134;-2.136;2024-01-25T07:39:09;101075.22;;;5.81;100.00
41862;BME280;27537;57.134;-2.136;2024-01-25T07:41:38;101085.47;;;5.92;100.00
41862;BME280;27537;57.134;-2.136;2024-01-25T07:44:04;101076.97;;;5.79;100.00
41862;BME280;27537;57.134;-2.136;2024-01-25T07:46:32;101070.22;;;5.64;100.00
41862;BME280;27537;57.134;-2.136;2024-01-25T07:48:59;101074.38;;;5.81;100.00
41862;BME280;27537;57.134;-2.136;2024-01-25T07:51:26;101064.69;;;5.90;100.00
41862;BME280;27537;57.134;-2.136;2024-01-25T07:53:55;101063.03;;;5.86;100.00
41862;BME280;27537;57.134;-2.136;2024-01-25T07:56:22;101048.25;;;5.92;100.00
41862;BME280;27537;57.134;-2.136;2024-01-25T07:58:49;101052.63;;;5.88;100.00
41862;BME280;27537;57.134;-2.136;2024-01-25T08:01:18;101051.84;;;5.81;100.00
41862;BME280;27537;57.134;-2.136;2024-01-25T08:03:46;101057.09;;;5.75;100.00
41862;BME280;27537;57.134;-2.136;2024-01-25T08:06:13;101040.00;;;5.56;100.00
41862;BME280;27537;57.134;-2.136;2024-01-25T08:08:40;101046.69;;;5.75;100.00
41862;BME280;27537;57.134;-2.136;2024-01-25T08:11:07;101043.22;;;5.79;100.00
41862;BME280;27537;57.134;-2.136;2024-01-25T08:13:34;101057.00;;;5.84;100.00
41862;BME280;27537;57.134;-2.136;2024-01-25T08:16:01;101035.47;;;5.73;100.00
41862;BME280;27537;57.134;-2.136;2024-01-25T08:18:28;101032.03;;;5.73;100.00
41862;BME280;27537;57.134;-2.136;2024-01-25T08:20:57;101025.84;;;5.81;100.00
41862;BME280;27537;57.134;-2.136;2024-01-25T08:23:24;101005.16;;;5.74;100.00
41862;BME280;27537;57.134;-2.136;2024-01-25T08:25:51;101004.25;;;5.76;100.00
41862;BME280;27537;57.134;-2.136;2024-01-25T08:28:17;100984.97;;;5.93;100.00
41862;BME280;27537;57.134;-2.136;2024-01-25T08:30:44;101002.19;;;6.03;100.00
41862;BME280;27537;57.134;-2.136;2024-01-25T08:33:11;101003.91;;;6.04;100.00
41862;BME280;27537;57.134;-2.136;2024-01-25T08:35:38;100999.41;;;6.15;100.00
41862;BME280;27537;57.134;-2.136;2024-01-25T08:38:06;100992.53;;;6.11;100.00
41862;BME280;27537;57.134;-2.136;2024-01-25T08:40:33;100978.59;;;6.15;100.00
41862;BME280;27537;57.134;-2.136;2024-01-25T08:43:00;100959.72;;;6.04;100.00
41862;BME280;27537;57.134;-2.136;2024-01-25T08:45:27;100951.06;;;6.03;100.00
41862;BME280;27537;57.134;-2.136;2024-01-25T08:47:54;100946.53;;;6.16;100.00
41862;BME280;27537;57.134;-2.136;2024-01-25T08:50:22;100936.91;;;6.21;100.00
41862;BME280;27537;57.134;-2.136;2024-01-25T08:52:52;100898.25;;;6.00;100.00
41862;BME280;27537;57.134;-2.136;2024-01-25T08:55:19;100922.19;;;6.22;100.00
41862;BME280;27537;57.134;-2.136;2024-01-25T08:57:45;100907.41;;;6.24;100.00
41862;BME280;27537;57.134;-2.136;2024-01-25T09:00:13;100915.19;;;6.25;100.00
41862;BME280;27537;57.134;-2.136;2024-01-25T09:02:40;100933.38;;;6.27;100.00
41862;BME280;27537;57.134;-2.136;2024-01-25T09:05:07;100917.75;;;6.29;100.00
41862;BME280;27537;57.134;-2.136;2024-01-25T09:07:35;100911.69;;;6.25;100.00
41862;BME280;27537;57.134;-2.136;2024-01-25T09:10:02;100921.09;;;6.34;100.00
41862;BME280;27537;57.134;-2.136;2024-01-25T09:12:31;100922.88;;;6.30;100.00
41862;BME280;27537;57.134;-2.136;2024-01-25T09:14:58;100931.50;;;6.34;100.00
41862;BME280;27537;57.134;-2.136;2024-01-25T09:17:25;100945.56;;;6.22;100.00
41862;BME280;27537;57.134;-2.136;2024-01-25T09:19:51;100934.16;;;6.32;100.00
41862;BME280;27537;57.134;-2.136;2024-01-25T09:22:19;100932.59;;;6.20;100.00
41862;BME280;27537;57.134;-2.136;2024-01-25T09:24:46;100918.84;;;6.14;100.00
41862;BME280;27537;57.134;-2.136;2024-01-25T09:27:14;100927.44;;;6.17;100.00
41862;BME280;27537;57.134;-2.136;2024-01-25T09:29:42;100896.34;;;6.13;100.00
41862;BME280;27537;57.134;-2.136;2024-01-25T09:32:09;100890.38;;;6.06;100.00
41862;BME280;27537;57.134;-2.136;2024-01-25T09:34:37;100898.69;;;6.26;100.00
41862;BME280;27537;57.134;-2.136;2024-01-25T09:37:06;100903.34;;;6.07;100.00
41862;BME280;27537;57.134;-2.136;2024-01-25T09:39:33;100899.38;;;6.36;100.00
41862;BME280;27537;57.134;-2.136;2024-01-25T09:42:05;100876.94;;;6.32;100.00
41862;BME280;27537;57.134;-2.136;2024-01-25T09:44:32;100866.41;;;6.38;100.00
41862;BME280;27537;57.134;-2.136;2024-01-25T09:47:03;100858.53;;;6.43;100.00
41862;BME280;27537;57.134;-2.136;2024-01-25T09:49:32;100846.91;;;6.62;100.00
41862;BME280;27537;57.134;-2.136;2024-01-25T09:52:01;100822.69;;;6.59;100.00
41862;BME280;27537;57.134;-2.136;2024-01-25T09:54:36;100821.59;;;6.69;100.00
41862;BME280;27537;57.134;-2.136;2024-01-25T09:57:06;100817.13;;;6.76;100.00
41862;BME280;27537;57.134;-2.136;2024-01-25T09:59:35;100821.78;;;6.60;100.00
41862;BME280;27537;57.134;-2.136;2024-01-25T10:02:01;100805.97;;;6.69;100.00
41862;BME280;27537;57.134;-2.136;2024-01-25T10:04:29;100794.91;;;6.59;100.00
41862;BME280;27537;57.134;-2.136;2024-01-25T10:06:56;100771.22;;;6.73;100.00
41862;BME280;27537;57.134;-2.136;2024-01-25T10:09:24;100793.81;;;6.71;100.00
41862;BME280;27537;57.134;-2.136;2024-01-25T10:11:50;100758.44;;;6.62;100.00
41862;BME280;27537;57.134;-2.136;2024-01-25T10:14:35;100762.97;;;6.93;100.00
41862;BME280;27537;57.134;-2.136;2024-01-25T10:17:02;100757.78;;;6.92;100.00
41862;BME280;27537;57.134;-2.136;2024-01-25T10:19:29;100764.69;;;6.94;100.00
41862;BME280;27537;57.134;-2.136;2024-01-25T10:21:56;100754.19;;;6.97;100.00
41862;BME280;27537;57.134;-2.136;2024-01-25T10:24:24;100769.34;;;7.19;100.00
41862;BME280;27537;57.134;-2.136;2024-01-25T10:26:51;100759.25;;;7.05;100.00
41862;BME280;27537;57.134;-2.136;2024-01-25T10:29:18;100756.41;;;7.14;100.00
41862;BME280;27537;57.134;-2.136;2024-01-25T10:31:45;100738.63;;;7.33;100.00
41862;BME280;27537;57.134;-2.136;2024-01-25T10:34:13;100730.00;;;7.31;100.00
41862;BME280;27537;57.134;-2.136;2024-01-25T10:36:42;100733.84;;;7.51;100.00
41862;BME280;27537;57.134;-2.136;2024-01-25T10:39:09;100726.88;;;7.51;100.00
41862;BME280;27537;57.134;-2.136;2024-01-25T10:41:37;100734.91;;;7.78;100.00
41862;BME280;27537;57.134;-2.136;2024-01-25T10:44:04;100740.66;;;7.89;100.00
41862;BME280;27537;57.134;-2.136;2024-01-25T10:46:34;100733.75;;;7.88;100.00
41862;BME280;27537;57.134;-2.136;2024-01-25T10:49:01;100722.41;;;7.89;100.00
41862;BME280;27537;57.134;-2.136;2024-01-25T10:51:29;100715.81;;;8.09;100.00
41862;BME280;27537;57.134;-2.136;2024-01-25T10:53:57;100720.50;;;7.96;100.00
41862;BME280;27537;57.134;-2.136;2024-01-25T10:56:25;100700.31;;;8.04;100.00
41862;BME280;27537;57.134;-2.136;2024-01-25T10:58:52;100687.28;;;8.04;100.00
41862;BME280;27537;57.134;-2.136;2024-01-25T11:01:19;100662.91;;;8.35;100.00
41862;BME280;27537;57.134;-2.136;2024-01-25T11:03:46;100657.97;;;7.94;100.00
41862;BME280;27537;57.134;-2.136;2024-01-25T11:06:14;100618.00;;;7.95;100.00
41862;BME280;27537;57.134;-2.136;2024-01-25T11:08:41;100607.59;;;7.94;100.00
41862;BME280;27537;57.134;-2.136;2024-01-25T11:11:10;100610.88;;;8.01;100.00
41862;BME280;27537;57.134;-2.136;2024-01-25T11:13:40;100622.16;;;7.70;100.00
41862;BME280;27537;57.134;-2.136;2024-01-25T11:16:16;100635.31;;;7.67;100.00
41862;BME280;27537;57.134;-2.136;2024-01-25T11:19:19;100653.41;;;8.03;100.00
41862;BME280;27537;57.134;-2.136;2024-01-25T11:21:48;100647.63;;;7.91;100.00
41862;BME280;27537;57.134;-2.136;2024-01-25T11:26:43;100626.88;;;7.88;100.00
41862;BME280;27537;57.134;-2.136;2024-01-25T11:29:17;100620.50;;;7.67;100.00
41862;BME280;27537;57.134;-2.136;2024-01-25T11:31:45;100593.97;;;7.84;100.00
41862;BME280;27537;57.134;-2.136;2024-01-25T11:34:13;100586.22;;;7.83;100.00
41862;BME280;27537;57.134;-2.136;2024-01-25T11:36:42;100580.72;;;7.92;100.00
41862;BME280;27537;57.134;-2.136;2024-01-25T11:39:09;100566.59;;;7.69;100.00
41862;BME280;27537;57.134;-2.136;2024-01-25T11:41:38;100585.75;;;7.98;100.00
41862;BME280;27537;57.134;-2.136;2024-01-25T11:44:05;100591.63;;;7.75;100.00
41862;BME280;27537;57.134;-2.136;2024-01-25T11:46:32;100551.50;;;7.80;100.00
41862;BME280;27537;57.134;-2.136;2024-01-25T11:49:04;100548.16;;;8.05;100.00
41862;BME280;27537;57.134;-2.136;2024-01-25T11:51:31;100544.34;;;7.87;100.00
41862;BME280;27537;57.134;-2.136;2024-01-25T11:53:58;100527.44;;;8.01;100.00
41862;BME280;27537;57.134;-2.136;2024-01-25T11:56:30;100534.03;;;8.12;100.00
41862;BME280;27537;57.134;-2.136;2024-01-25T11:58:58;100527.44;;;8.01;100.00
41862;BME280;27537;57.134;-2.136;2024-01-25T12:01:25;100514.53;;;7.96;100.00
41862;BME280;27537;57.134;-2.136;2024-01-25T12:03:53;100504.25;;;7.91;100.00
41862;BME280;27537;57.134;-2.136;2024-01-25T12:06:20;100496.66;;;7.84;100.00
41862;BME280;27537;57.134;-2.136;2024-01-25T12:08:48;100497.72;;;8.06;100.00
41862;BME280;27537;57.134;-2.136;2024-01-25T12:11:15;100501.09;;;8.10;100.00
41862;BME280;27537;57.134;-2.136;2024-01-25T12:13:44;100496.00;;;8.05;100.00
41862;BME280;27537;57.134;-2.136;2024-01-25T12:16:11;100472.03;;;7.94;100.00
41862;BME280;27537;57.134;-2.136;2024-01-25T12:18:41;100474.53;;;8.25;100.00
41862;BME280;27537;57.134;-2.136;2024-01-25T12:21:09;100453.91;;;8.17;100.00
41862;BME280;27537;57.134;-2.136;2024-01-25T12:23:38;100449.03;;;8.07;100.00
41862;BME280;27537;57.134;-2.136;2024-01-25T12:26:09;100450.22;;;7.96;100.00
41862;BME280;27537;57.134;-2.136;2024-01-25T12:28:39;100435.25;;;7.75;100.00
41862;BME280;27537;57.134;-2.136;2024-01-25T12:31:06;100417.91;;;7.46;100.00
41862;BME280;27537;57.134;-2.136;2024-01-25T12:33:33;100417.63;;;7.55;100.00
41862;BME280;27537;57.134;-2.136;2024-01-25T12:36:02;100418.13;;;7.66;100.00
41862;BME280;27537;57.134;-2.136;2024-01-25T12:38:29;100426.75;;;7.68;100.00
41862;BME280;27537;57.134;-2.136;2024-01-25T12:40:58;100431.25;;;7.35;100.00
41862;BME280;27537;57.134;-2.136;2024-01-25T12:43:26;100420.22;;;7.55;100.00